Time,TemperatureF,DewpointF,PressureIn,WindDirection,WindDirectionDegrees,WindSpeedMPH,WindSpeedGustMPH,Humidity,HourlyPrecipIn,Conditions,Clouds,dailyrainin,SoftwareType,DateUTC
2013-01-18 00:03:00,24.9,12.7,30.02,NE,41,3.0,6.8,59,0.00,n/a,n/a,-99.99,Henriksen +1-Wire,2013-01-18 05:03:00,
2013-01-18 00:04:00,24.8,12.6,30.02,NE,41,2.6,6.8,59,0.00,n/a,n/a,-99.99,Henriksen +1-Wire,2013-01-18 05:04:00,
2013-01-18 00:05:00,24.7,12.5,30.02,NE,43,1.5,6.8,59,0.00,n/a,n/a,-99.99,Henriksen +1-Wire,2013-01-18 05:05:00,
2013-01-18 00:10:00,24.4,12.2,30.03,NE,39,3.1,6.8,59,0.00,n/a,n/a,-99.99,Henriksen +1-Wire,2013-01-18 05:10:00,
2013-01-18 00:16:00,24.1,12.0,30.03,NE,44,2.9,6.3,59,0.00,n/a,n/a,-99.99,Henriksen +1-Wire,2013-01-18 05:16:00,
2013-01-18 00:17:00,24.1,12.0,30.03,NE,42,2.7,6.3,59,0.00,n/a,n/a,-99.99,Henriksen +1-Wire,2013-01-18 05:17:00,
2013-01-18 00:22:00,24.2,11.9,30.04,North,8,2.5,5.5,59,0.00,n/a,n/a,-99.99,Henriksen +1-Wire,2013-01-18 05:22:00,
2013-01-18 00:27:00,24.2,11.7,30.05,NE,35,2.4,5.5,58,0.00,n/a,n/a,-99.99,Henriksen +1-Wire,2013-01-18 05:27:00,
2013-01-18 00:32:00,24.6,11.9,30.06,NE,39,4.2,5.6,58,0.00,n/a,n/a,-99.99,Henriksen +1-Wire,2013-01-18 05:32:00,
2013-01-18 00:37:00,24.8,11.9,30.06,NNE,20,1.1,5.6,57,0.00,n/a,n/a,-99.99,Henriksen +1-Wire,2013-01-18 05:37:00,
2013-01-18 00:42:00,24.9,11.9,30.06,North,357,1.3,5.5,57,0.00,n/a,n/a,-99.99,Henriksen +1-Wire,2013-01-18 05:42:00,
2013-01-18 00:48:00,25.0,11.8,30.06,North,359,2.9,5.5,56,0.00,n/a,n/a,-99.99,Henriksen +1-Wire,2013-01-18 05:48:00,
2013-01-18 00:54:00,25.0,11.6,30.06,NNE,25,2.4,6.2,56,0.00,n/a,n/a,-99.99,Henriksen +1-Wire,2013-01-18 05:54:00,
2013-01-18 00:59:00,24.9,11.3,30.06,NNE,27,3.4,6.2,56,0.00,n/a,n/a,-99.99,Henriksen +1-Wire,2013-01-18 05:59:00,
2013-01-18 01:04:00,24.9,10.9,30.06,NNE,15,3.2,5.9,54,0.00,n/a,n/a,-99.99,Henriksen +1-Wire,2013-01-18 06:04:00,
2013-01-18 01:09:00,24.8,10.3,30.08,NNE,19,2.8,6.7,53,0.00,n/a,n/a,-99.99,Henriksen +1-Wire,2013-01-18 06:09:00,
2013-01-18 01:14:00,24.7,10.3,30.09,North,7,1.7,6.7,53,0.00,n/a,n/a,-99.99,Henriksen +1-Wire,2013-01-18 06:14:00,
2013-01-18 01:19:00,24.7,10.3,30.07,North,10,2.8,5.5,54,0.00,n/a,n/a,-99.99,Henriksen +1-Wire,2013-01-18 06:19:00,
2013-01-18 01:24:00,24.6,10.3,30.05,North,358,3.1,5.7,54,0.00,n/a,n/a,-99.99,Henriksen +1-Wire,2013-01-18 06:24:00,
2013-01-18 01:29:00,24.6,9.9,30.06,North,357,1.5,5.7,53,0.00,n/a,n/a,-99.99,Henriksen +1-Wire,2013-01-18 06:29:00,
2013-01-18 01:34:00,24.5,9.6,30.06,NNE,12,2.0,4.7,52,0.00,n/a,n/a,-99.99,Henriksen +1-Wire,2013-01-18 06:34:00,
2013-01-18 01:39:00,23.9,8.7,30.06,NNE,25,4.2,6.9,52,0.00,n/a,n/a,-99.99,Henriksen +1-Wire,2013-01-18 06:39:00,
2013-01-18 01:44:00,23.2,7.7,30.05,NNE,17,2.8,6.9,51,0.00,n/a,n/a,-99.99,Henriksen +1-Wire,2013-01-18 06:44:00,
2013-01-18 01:49:00,22.8,7.0,30.06,NNE,22,4.0,7.1,50,0.00,n/a,n/a,-99.99,Henriksen +1-Wire,2013-01-18 06:49:00,
2013-01-18 01:54:00,22.6,6.2,30.06,NNE,20,4.4,7.1,49,0.00,n/a,n/a,-99.99,Henriksen +1-Wire,2013-01-18 06:54:00,
2013-01-18 01:59:00,22.3,5.7,30.05,NNE,26,2.3,7.1,48,0.00,n/a,n/a,-99.99,Henriksen +1-Wire,2013-01-18 06:59:00,
2013-01-18 02:04:00,22.6,5.8,30.06,North,358,3.0,9.6,48,0.00,n/a,n/a,-99.99,Henriksen +1-Wire,2013-01-18 07:04:00,
2013-01-18 02:09:00,22.8,6.1,30.07,North,3,3.2,9.6,48,0.00,n/a,n/a,-99.99,Henriksen +1-Wire,2013-01-18 07:09:00,
2013-01-18 02:14:00,22.9,6.0,30.08,North,9,2.2,7.1,47,0.00,n/a,n/a,-99.99,Henriksen +1-Wire,2013-01-18 07:14:00,
2013-01-18 02:19:00,22.9,5.9,30.08,North,359,3.3,8.0,47,0.00,n/a,n/a,-99.99,Henriksen +1-Wire,2013-01-18 07:19:00,
2013-01-18 02:24:00,22.9,5.7,30.08,North,359,2.6,8.0,47,0.00,n/a,n/a,-99.99,Henriksen +1-Wire,2013-01-18 07:24:00,
2013-01-18 02:29:00,22.9,5.5,30.09,North,1,3.5,7.4,46,0.00,n/a,n/a,-99.99,Henriksen +1-Wire,2013-01-18 07:29:00,
2013-01-18 02:34:00,22.9,5.6,30.09,North,351,2.1,7.4,47,0.00,n/a,n/a,-99.99,Henriksen +1-Wire,2013-01-18 07:34:00,
2013-01-18 02:39:00,22.8,5.7,30.07,North,352,1.3,6.2,47,0.00,n/a,n/a,-99.99,Henriksen +1-Wire,2013-01-18 07:39:00,
2013-01-18 02:44:00,22.7,5.9,30.07,NNW,344,1.1,7.0,48,0.00,n/a,n/a,-99.99,Henriksen +1-Wire,2013-01-18 07:44:00,
2013-01-18 02:49:00,22.7,6.0,30.08,NNW,338,1.3,7.0,48,0.00,n/a,n/a,-99.99,Henriksen +1-Wire,2013-01-18 07:49:00,
2013-01-18 02:54:00,22.4,5.7,30.09,North,353,0.2,5.5,48,0.00,n/a,n/a,-99.99,Henriksen +1-Wire,2013-01-18 07:54:00,
2013-01-18 03:00:00,21.6,4.9,30.09,NNW,344,0.9,6.3,48,0.00,n/a,n/a,-99.99,Henriksen +1-Wire,2013-01-18 08:00:00,
2013-01-18 03:06:00,21.2,4.5,30.09,NNW,331,2.1,7.4,48,0.00,n/a,n/a,-99.99,Henriksen +1-Wire,2013-01-18 08:06:00,
2013-01-18 03:11:00,20.9,4.1,30.10,NNW,339,1.4,8.6,48,0.00,n/a,n/a,-99.99,Henriksen +1-Wire,2013-01-18 08:11:00,
2013-01-18 03:16:00,20.7,4.0,30.10,North,351,3.3,8.6,48,0.00,n/a,n/a,-99.99,Henriksen +1-Wire,2013-01-18 08:16:00,
2013-01-18 03:22:00,20.6,4.2,30.09,NNW,348,1.0,6.3,48,0.00,n/a,n/a,-99.99,Henriksen +1-Wire,2013-01-18 08:22:00,
2013-01-18 03:28:00,20.5,4.3,30.10,NNW,338,2.1,8.8,49,0.00,n/a,n/a,-99.99,Henriksen +1-Wire,2013-01-18 08:28:00,
2013-01-18 03:33:00,20.3,4.1,30.09,NNW,331,4.0,8.6,49,0.00,n/a,n/a,-99.99,Henriksen +1-Wire,2013-01-18 08:33:00,
2013-01-18 03:38:00,20.2,4.2,30.09,NNW,337,2.1,8.6,49,0.00,n/a,n/a,-99.99,Henriksen +1-Wire,2013-01-18 08:38:00,
2013-01-18 03:43:00,20.1,4.2,30.08,NNE,18,2.3,8.6,49,0.00,n/a,n/a,-99.99,Henriksen +1-Wire,2013-01-18 08:43:00,
2013-01-18 03:48:00,20.6,4.5,30.08,North,3,2.0,10.0,49,0.00,n/a,n/a,-99.99,Henriksen +1-Wire,2013-01-18 08:48:00,
2013-01-18 03:53:00,20.9,4.7,30.08,North,357,1.7,10.0,49,0.00,n/a,n/a,-99.99,Henriksen +1-Wire,2013-01-18 08:53:00,
2013-01-18 03:58:00,21.0,5.1,30.08,North,2,1.3,10.3,49,0.00,n/a,n/a,-99.99,Henriksen +1-Wire,2013-01-18 08:58:00,
2013-01-18 04:04:00,21.0,5.2,30.08,NNW,328,1.4,10.3,50,0.00,n/a,n/a,-99.99,Henriksen +1-Wire,2013-01-18 09:04:00,
2013-01-18 04:10:00,21.0,5.1,30.09,North,350,1.5,8.0,49,0.00,n/a,n/a,-99.99,Henriksen +1-Wire,2013-01-18 09:10:00,
2013-01-18 04:16:00,20.3,4.3,30.10,North,353,0.6,7.1,49,0.00,n/a,n/a,-99.99,Henriksen +1-Wire,2013-01-18 09:16:00,
2013-01-18 04:21:00,19.8,4.0,30.11,NE,41,0.2,7.1,49,0.00,n/a,n/a,-99.99,Henriksen +1-Wire,2013-01-18 09:21:00,
2013-01-18 04:26:00,19.3,3.6,30.10,North,5,1.2,6.3,50,0.00,n/a,n/a,-99.99,Henriksen +1-Wire,2013-01-18 09:26:00,
2013-01-18 04:31:00,19.0,3.0,30.09,NNW,331,0.4,6.3,49,0.00,n/a,n/a,-99.99,Henriksen +1-Wire,2013-01-18 09:31:00,
2013-01-18 04:36:00,18.8,2.5,30.09,NNW,345,0.3,5.5,48,0.00,n/a,n/a,-99.99,Henriksen +1-Wire,2013-01-18 09:36:00,
2013-01-18 04:42:00,18.7,2.0,30.09,NNW,333,5.0,9.4,47,0.00,n/a,n/a,-99.99,Henriksen +1-Wire,2013-01-18 09:42:00,
2013-01-18 04:47:00,19.1,2.1,30.10,NNW,336,4.6,9.4,47,0.00,n/a,n/a,-99.99,Henriksen +1-Wire,2013-01-18 09:47:00,
2013-01-18 04:52:00,19.2,1.6,30.10,North,350,4.3,8.7,46,0.00,n/a,n/a,-99.99,Henriksen +1-Wire,2013-01-18 09:52:00,
2013-01-18 04:57:00,19.3,1.4,30.11,NNW,348,2.0,8.3,45,0.00,n/a,n/a,-99.99,Henriksen +1-Wire,2013-01-18 09:57:00,
2013-01-18 05:02:00,19.3,1.4,30.11,NW,319,3.3,9.2,45,0.00,n/a,n/a,-99.99,Henriksen +1-Wire,2013-01-18 10:02:00,
2013-01-18 05:07:00,19.2,1.5,30.12,NNW,331,2.6,9.2,45,0.00,n/a,n/a,-99.99,Henriksen +1-Wire,2013-01-18 10:07:00,
2013-01-18 05:12:00,18.8,1.2,30.12,NNW,346,0.6,7.1,45,0.00,n/a,n/a,-99.99,Henriksen +1-Wire,2013-01-18 10:12:00,
2013-01-18 05:17:00,18.0,0.6,30.12,NNW,341,6.3,10.3,46,0.00,n/a,n/a,-99.99,Henriksen +1-Wire,2013-01-18 10:17:00,
2013-01-18 05:22:00,17.5,-0.1,30.11,NNW,331,3.4,10.3,45,0.00,n/a,n/a,-99.99,Henriksen +1-Wire,2013-01-18 10:22:00,
2013-01-18 05:27:00,17.3,-0.9,30.12,NNW,332,3.8,9.7,44,0.00,n/a,n/a,-99.99,Henriksen +1-Wire,2013-01-18 10:27:00,
2013-01-18 05:32:00,17.4,-0.9,30.13,NW,320,1.2,9.7,44,0.00,n/a,n/a,-99.99,Henriksen +1-Wire,2013-01-18 10:32:00,
2013-01-18 05:37:00,17.5,-0.9,30.14,NNW,328,1.3,8.9,44,0.00,n/a,n/a,-99.99,Henriksen +1-Wire,2013-01-18 10:37:00,
2013-01-18 05:42:00,17.4,-0.8,30.14,NNW,331,3.6,9.4,44,0.00,n/a,n/a,-99.99,Henriksen +1-Wire,2013-01-18 10:42:00,
2013-01-18 05:47:00,16.9,-1.1,30.14,NNW,339,4.7,9.4,44,0.00,n/a,n/a,-99.99,Henriksen +1-Wire,2013-01-18 10:47:00,
2013-01-18 05:52:00,16.2,-1.9,30.14,North,355,5.6,12.6,44,0.00,n/a,n/a,-99.99,Henriksen +1-Wire,2013-01-18 10:52:00,
2013-01-18 05:57:00,15.6,-2.7,30.15,NNW,338,3.8,12.6,44,0.00,n/a,n/a,-99.99,Henriksen +1-Wire,2013-01-18 10:57:00,
2013-01-18 06:02:00,15.3,-3.2,30.15,NNW,340,2.5,8.7,43,0.00,n/a,n/a,-99.99,Henriksen +1-Wire,2013-01-18 11:02:00,
2013-01-18 06:07:00,15.1,-3.5,30.16,NNW,339,2.7,8.2,43,0.00,n/a,n/a,-99.99,Henriksen +1-Wire,2013-01-18 11:07:00,
2013-01-18 06:12:00,14.9,-3.7,30.16,NNW,331,2.9,8.2,43,0.00,n/a,n/a,-99.99,Henriksen +1-Wire,2013-01-18 11:12:00,
2013-01-18 06:17:00,15.2,-3.2,30.16,NNW,335,3.1,7.2,43,0.00,n/a,n/a,-99.99,Henriksen +1-Wire,2013-01-18 11:17:00,
2013-01-18 06:22:00,15.5,-2.4,30.16,North,354,2.4,7.5,44,0.00,n/a,n/a,-99.99,Henriksen +1-Wire,2013-01-18 11:22:00,
2013-01-18 06:27:00,15.6,-1.8,30.17,NNW,339,4.1,8.7,45,0.00,n/a,n/a,-99.99,Henriksen +1-Wire,2013-01-18 11:27:00,
2013-01-18 06:33:00,15.7,-1.9,30.17,NNW,345,2.9,8.7,45,0.00,n/a,n/a,-99.99,Henriksen +1-Wire,2013-01-18 11:33:00,
2013-01-18 06:38:00,15.7,-2.2,30.18,NNW,340,2.4,9.6,44,0.00,n/a,n/a,-99.99,Henriksen +1-Wire,2013-01-18 11:38:00,
2013-01-18 06:43:00,15.6,-2.5,30.18,NNW,334,1.3,9.6,44,0.00,n/a,n/a,-99.99,Henriksen +1-Wire,2013-01-18 11:43:00,
2013-01-18 06:48:00,15.4,-2.7,30.19,NNW,332,6.8,14.1,44,0.00,n/a,n/a,-99.99,Henriksen +1-Wire,2013-01-18 11:48:00,
2013-01-18 06:53:00,15.0,-3.1,30.19,NNW,335,3.2,14.1,44,0.00,n/a,n/a,-99.99,Henriksen +1-Wire,2013-01-18 11:53:00,
2013-01-18 06:58:00,14.3,-3.9,30.20,NNW,338,4.3,8.9,44,0.00,n/a,n/a,-99.99,Henriksen +1-Wire,2013-01-18 11:58:00,
2013-01-18 07:03:00,13.9,-4.3,30.20,NNW,333,2.8,10.3,44,0.00,n/a,n/a,-99.99,Henriksen +1-Wire,2013-01-18 12:03:00,
2013-01-18 07:09:00,13.5,-4.6,30.20,NNW,332,6.0,8.9,44,0.00,n/a,n/a,-99.99,Henriksen +1-Wire,2013-01-18 12:09:00,
2013-01-18 07:14:00,13.4,-4.7,30.20,NNW,337,3.6,9.4,44,0.00,n/a,n/a,-99.99,Henriksen +1-Wire,2013-01-18 12:14:00,
2013-01-18 07:19:00,13.3,-4.6,30.21,NNW,337,5.2,12.2,44,0.00,n/a,n/a,-99.99,Henriksen +1-Wire,2013-01-18 12:19:00,
2013-01-18 07:25:00,13.7,-3.9,30.21,NNW,329,5.0,12.2,45,0.00,n/a,n/a,-99.99,Henriksen +1-Wire,2013-01-18 12:25:00,
2013-01-18 07:30:00,13.9,-3.6,30.21,NNW,333,2.8,12.9,45,0.00,n/a,n/a,-99.99,Henriksen +1-Wire,2013-01-18 12:30:00,
2013-01-18 07:36:00,14.0,-3.7,30.22,NNW,336,4.9,13.3,45,0.00,n/a,n/a,-99.99,Henriksen +1-Wire,2013-01-18 12:36:00,
2013-01-18 07:41:00,14.0,-3.5,30.22,North,349,4.3,13.3,45,0.00,n/a,n/a,-99.99,Henriksen +1-Wire,2013-01-18 12:41:00,
2013-01-18 07:46:00,14.1,-3.4,30.23,North,351,2.8,10.2,45,0.00,n/a,n/a,-99.99,Henriksen +1-Wire,2013-01-18 12:46:00,
2013-01-18 07:51:00,14.2,-3.5,30.23,NW,322,4.1,10.2,45,0.00,n/a,n/a,-99.99,Henriksen +1-Wire,2013-01-18 12:51:00,
2013-01-18 07:56:00,14.1,-3.5,30.24,North,349,6.2,12.6,45,0.00,n/a,n/a,-99.99,Henriksen +1-Wire,2013-01-18 12:56:00,
2013-01-18 08:01:00,14.1,-3.4,30.24,NNW,338,2.1,12.6,45,0.00,n/a,n/a,-99.99,Henriksen +1-Wire,2013-01-18 13:01:00,
2013-01-18 08:06:00,14.1,-3.2,30.25,NNW,341,1.0,8.7,45,0.00,n/a,n/a,-99.99,Henriksen +1-Wire,2013-01-18 13:06:00,
2013-01-18 08:11:00,14.0,-3.3,30.25,North,5,5.7,11.2,45,0.00,n/a,n/a,-99.99,Henriksen +1-Wire,2013-01-18 13:11:00,
2013-01-18 08:17:00,13.8,-3.9,30.25,NNW,345,3.6,11.3,44,0.00,n/a,n/a,-99.99,Henriksen +1-Wire,2013-01-18 13:17:00,
2013-01-18 08:22:00,13.7,-4.2,30.25,NNW,342,4.8,14.9,44,0.00,n/a,n/a,-99.99,Henriksen +1-Wire,2013-01-18 13:22:00,
2013-01-18 08:27:00,13.7,-4.5,30.26,North,351,6.1,14.9,43,0.00,n/a,n/a,-99.99,Henriksen +1-Wire,2013-01-18 13:27:00,
2013-01-18 08:32:00,13.4,-5.4,30.26,NNW,331,5.2,13.3,42,0.00,n/a,n/a,-99.99,Henriksen +1-Wire,2013-01-18 13:32:00,
2013-01-18 08:37:00,13.2,-5.8,30.26,NNW,330,3.1,10.2,42,0.00,n/a,n/a,-99.99,Henriksen +1-Wire,2013-01-18 13:37:00,
2013-01-18 08:42:00,13.1,-6.2,30.26,NNW,345,5.3,11.0,41,0.00,n/a,n/a,-99.99,Henriksen +1-Wire,2013-01-18 13:42:00,
2013-01-18 08:47:00,13.0,-6.6,30.27,NNW,338,5.4,12.6,41,0.00,n/a,n/a,-99.99,Henriksen +1-Wire,2013-01-18 13:47:00,
2013-01-18 08:52:00,13.0,-6.8,30.27,NNW,336,6.3,12.6,40,0.00,n/a,n/a,-99.99,Henriksen +1-Wire,2013-01-18 13:52:00,
2013-01-18 08:57:00,13.0,-6.9,30.27,North,350,4.0,10.4,40,0.00,n/a,n/a,-99.99,Henriksen +1-Wire,2013-01-18 13:57:00,
2013-01-18 09:03:00,13.5,-6.5,30.27,NNW,328,1.6,9.5,40,0.00,n/a,n/a,-99.99,Henriksen +1-Wire,2013-01-18 14:03:00,
2013-01-18 09:08:00,14.1,-6.0,30.27,NNW,331,5.5,12.1,40,0.00,n/a,n/a,-99.99,Henriksen +1-Wire,2013-01-18 14:08:00,
2013-01-18 09:14:00,14.3,-5.7,30.27,NW,316,3.3,12.1,40,0.00,n/a,n/a,-99.99,Henriksen +1-Wire,2013-01-18 14:14:00,
2013-01-18 09:19:00,14.5,-5.6,30.28,NW,319,2.0,11.1,40,0.00,n/a,n/a,-99.99,Henriksen +1-Wire,2013-01-18 14:19:00,
2013-01-18 09:24:00,15.0,-5.2,30.28,NNW,339,3.3,11.1,40,0.00,n/a,n/a,-99.99,Henriksen +1-Wire,2013-01-18 14:24:00,
2013-01-18 09:29:00,15.3,-4.9,30.28,NNW,335,4.0,8.7,40,0.00,n/a,n/a,-99.99,Henriksen +1-Wire,2013-01-18 14:29:00,
2013-01-18 09:34:00,15.4,-5.0,30.28,NNW,328,5.4,11.8,39,0.00,n/a,n/a,-99.99,Henriksen +1-Wire,2013-01-18 14:34:00,
2013-01-18 09:39:00,15.5,-5.3,30.28,NW,326,3.9,11.8,39,0.00,n/a,n/a,-99.99,Henriksen +1-Wire,2013-01-18 14:39:00,
2013-01-18 09:44:00,15.6,-5.4,30.28,NNW,330,5.0,11.8,38,0.00,n/a,n/a,-99.99,Henriksen +1-Wire,2013-01-18 14:44:00,
2013-01-18 09:49:00,15.6,-5.6,30.29,NNW,336,4.4,14.8,38,0.00,n/a,n/a,-99.99,Henriksen +1-Wire,2013-01-18 14:49:00,
2013-01-18 09:54:00,15.3,-5.9,30.29,NNW,337,3.8,14.8,38,0.00,n/a,n/a,-99.99,Henriksen +1-Wire,2013-01-18 14:54:00,
2013-01-18 09:59:00,15.1,-6.0,30.29,NNW,332,6.5,12.4,38,0.00,n/a,n/a,-99.99,Henriksen +1-Wire,2013-01-18 14:59:00,
2013-01-18 10:04:00,15.2,-5.7,30.29,NNW,342,6.4,12.4,38,0.00,n/a,n/a,-99.99,Henriksen +1-Wire,2013-01-18 15:04:00,
2013-01-18 10:09:00,15.5,-5.7,30.29,NNW,340,2.7,11.9,38,0.00,n/a,n/a,-99.99,Henriksen +1-Wire,2013-01-18 15:09:00,
2013-01-18 10:14:00,15.3,-5.9,30.30,NNW,336,3.5,11.2,38,0.00,n/a,n/a,-99.99,Henriksen +1-Wire,2013-01-18 15:14:00,
2013-01-18 10:19:00,15.2,-5.9,30.30,NNW,334,4.7,10.4,38,0.00,n/a,n/a,-99.99,Henriksen +1-Wire,2013-01-18 15:19:00,
2013-01-18 10:24:00,15.1,-6.0,30.30,North,4,4.4,11.8,38,0.00,n/a,n/a,-99.99,Henriksen +1-Wire,2013-01-18 15:24:00,
2013-01-18 10:29:00,15.0,-6.0,30.30,North,350,3.9,11.8,38,0.00,n/a,n/a,-99.99,Henriksen +1-Wire,2013-01-18 15:29:00,
2013-01-18 10:34:00,14.9,-6.0,30.29,NNW,342,5.3,10.3,38,0.00,n/a,n/a,-99.99,Henriksen +1-Wire,2013-01-18 15:34:00,
2013-01-18 10:39:00,14.9,-6.0,30.29,NNW,347,2.4,11.0,38,0.00,n/a,n/a,-99.99,Henriksen +1-Wire,2013-01-18 15:39:00,
2013-01-18 10:44:00,15.4,-5.5,30.30,NNW,332,3.5,11.0,38,0.00,n/a,n/a,-99.99,Henriksen +1-Wire,2013-01-18 15:44:00,
2013-01-18 10:49:00,15.1,-5.7,30.30,NNW,334,6.9,11.8,39,0.00,n/a,n/a,-99.99,Henriksen +1-Wire,2013-01-18 15:49:00,
2013-01-18 10:54:00,15.0,-5.8,30.29,NNW,338,4.8,11.8,39,0.00,n/a,n/a,-99.99,Henriksen +1-Wire,2013-01-18 15:54:00,
2013-01-18 10:59:00,15.7,-5.6,30.29,NNW,337,4.9,11.1,38,0.00,n/a,n/a,-99.99,Henriksen +1-Wire,2013-01-18 15:59:00,
2013-01-18 11:04:00,15.4,-5.7,30.29,NW,324,6.4,12.8,38,0.00,n/a,n/a,-99.99,Henriksen +1-Wire,2013-01-18 16:04:00,
2013-01-18 11:10:00,15.3,-5.7,30.29,NNW,330,6.7,14.8,38,0.00,n/a,n/a,-99.99,Henriksen +1-Wire,2013-01-18 16:10:00,
2013-01-18 11:16:00,16.2,-5.1,30.29,NNW,334,4.5,11.1,38,0.00,n/a,n/a,-99.99,Henriksen +1-Wire,2013-01-18 16:16:00,
2013-01-18 11:21:00,16.6,-4.5,30.29,NNW,339,7.4,11.8,38,0.00,n/a,n/a,-99.99,Henriksen +1-Wire,2013-01-18 16:21:00,
2013-01-18 11:27:00,17.1,-3.8,30.29,NNW,336,4.8,11.8,39,0.00,n/a,n/a,-99.99,Henriksen +1-Wire,2013-01-18 16:27:00,
2013-01-18 11:32:00,16.8,-4.0,30.29,NW,316,6.6,11.0,39,0.00,n/a,n/a,-99.99,Henriksen +1-Wire,2013-01-18 16:32:00,
2013-01-18 11:37:00,16.8,-3.8,30.29,NNW,337,4.7,12.5,39,0.00,n/a,n/a,-99.99,Henriksen +1-Wire,2013-01-18 16:37:00,
2013-01-18 11:42:00,16.7,-3.8,30.29,NNW,333,6.5,14.1,39,0.00,n/a,n/a,-99.99,Henriksen +1-Wire,2013-01-18 16:42:00,
2013-01-18 11:47:00,16.8,-3.9,30.29,NNW,335,5.9,15.5,39,0.00,n/a,n/a,-99.99,Henriksen +1-Wire,2013-01-18 16:47:00,
2013-01-18 11:53:00,16.8,-4.0,30.28,North,360,6.4,15.5,39,0.00,n/a,n/a,-99.99,Henriksen +1-Wire,2013-01-18 16:53:00,
2013-01-18 11:58:00,16.8,-4.1,30.28,North,353,6.2,13.4,39,0.00,n/a,n/a,-99.99,Henriksen +1-Wire,2013-01-18 16:58:00,
2013-01-18 12:04:00,17.5,-3.6,30.28,North,353,3.8,14.4,38,0.00,n/a,n/a,-99.99,Henriksen +1-Wire,2013-01-18 17:04:00,
2013-01-18 12:09:00,18.2,-2.7,30.28,NNW,336,8.0,17.3,39,0.00,n/a,n/a,-99.99,Henriksen +1-Wire,2013-01-18 17:09:00,
2013-01-18 12:14:00,18.5,-2.3,30.28,NNW,341,7.1,17.3,39,0.00,n/a,n/a,-99.99,Henriksen +1-Wire,2013-01-18 17:14:00,
2013-01-18 12:19:00,18.8,-2.7,30.28,NNW,333,7.2,19.8,38,0.00,n/a,n/a,-99.99,Henriksen +1-Wire,2013-01-18 17:19:00,
2013-01-18 12:24:00,19.0,-2.9,30.28,NNW,334,6.6,19.8,37,0.00,n/a,n/a,-99.99,Henriksen +1-Wire,2013-01-18 17:24:00,
2013-01-18 12:29:00,19.1,-2.6,30.29,NNW,348,6.5,15.5,37,0.00,n/a,n/a,-99.99,Henriksen +1-Wire,2013-01-18 17:29:00,
2013-01-18 12:34:00,19.2,-2.3,30.29,North,358,4.8,15.0,38,0.00,n/a,n/a,-99.99,Henriksen +1-Wire,2013-01-18 17:34:00,
2013-01-18 12:39:00,19.2,-2.0,30.29,North,349,5.9,13.7,39,0.00,n/a,n/a,-99.99,Henriksen +1-Wire,2013-01-18 17:39:00,
2013-01-18 12:45:00,18.9,-2.1,30.29,NW,321,4.4,13.7,39,0.00,n/a,n/a,-99.99,Henriksen +1-Wire,2013-01-18 17:45:00,
2013-01-18 12:50:00,18.7,-2.2,30.29,NW,322,1.9,11.7,39,0.00,n/a,n/a,-99.99,Henriksen +1-Wire,2013-01-18 17:50:00,
2013-01-18 12:56:00,18.7,-2.6,30.29,NNW,332,5.4,12.5,38,0.00,n/a,n/a,-99.99,Henriksen +1-Wire,2013-01-18 17:56:00,
2013-01-18 13:01:00,18.6,-2.8,30.29,North,353,4.8,12.5,38,0.00,n/a,n/a,-99.99,Henriksen +1-Wire,2013-01-18 18:01:00,
2013-01-18 13:06:00,19.3,-2.2,30.29,NW,324,0.7,9.5,38,0.00,n/a,n/a,-99.99,Henriksen +1-Wire,2013-01-18 18:06:00,
2013-01-18 13:11:00,19.3,-2.2,30.29,NW,319,6.0,15.0,38,0.00,n/a,n/a,-99.99,Henriksen +1-Wire,2013-01-18 18:11:00,
2013-01-18 13:16:00,19.5,-2.0,30.29,North,350,2.9,15.0,38,0.00,n/a,n/a,-99.99,Henriksen +1-Wire,2013-01-18 18:16:00,
2013-01-18 13:21:00,20.1,-1.2,30.29,NNW,339,7.4,12.2,39,0.00,n/a,n/a,-99.99,Henriksen +1-Wire,2013-01-18 18:21:00,
2013-01-18 13:26:00,19.8,-1.2,30.30,NNW,336,8.3,14.8,39,0.00,n/a,n/a,-99.99,Henriksen +1-Wire,2013-01-18 18:26:00,
2013-01-18 13:31:00,19.4,-2.0,30.30,North,351,7.9,15.7,38,0.00,n/a,n/a,-99.99,Henriksen +1-Wire,2013-01-18 18:31:00,
2013-01-18 13:36:00,19.3,-2.4,30.30,NNW,338,7.3,17.0,38,0.00,n/a,n/a,-99.99,Henriksen +1-Wire,2013-01-18 18:36:00,
2013-01-18 13:41:00,19.1,-2.8,30.30,North,7,5.0,17.0,37,0.00,n/a,n/a,-99.99,Henriksen +1-Wire,2013-01-18 18:41:00,
2013-01-18 13:47:00,19.8,-1.8,30.30,North,349,3.9,12.8,38,0.00,n/a,n/a,-99.99,Henriksen +1-Wire,2013-01-18 18:47:00,
2013-01-18 13:52:00,20.3,-1.0,30.30,North,353,1.9,10.3,39,0.00,n/a,n/a,-99.99,Henriksen +1-Wire,2013-01-18 18:52:00,
2013-01-18 13:57:00,20.4,-0.7,30.30,North,358,2.1,9.6,39,0.00,n/a,n/a,-99.99,Henriksen +1-Wire,2013-01-18 18:57:00,
2013-01-18 14:02:00,20.5,-0.7,30.31,North,353,5.1,9.6,39,0.00,n/a,n/a,-99.99,Henriksen +1-Wire,2013-01-18 19:02:00,
2013-01-18 14:07:00,20.7,-0.6,30.31,NNW,335,6.3,13.7,38,0.00,n/a,n/a,-99.99,Henriksen +1-Wire,2013-01-18 19:07:00,
2013-01-18 14:13:00,21.0,-0.4,30.31,NNW,331,2.5,13.7,38,0.00,n/a,n/a,-99.99,Henriksen +1-Wire,2013-01-18 19:13:00,
2013-01-18 14:18:00,21.1,-0.4,30.31,NNW,333,4.8,11.9,38,0.00,n/a,n/a,-99.99,Henriksen +1-Wire,2013-01-18 19:18:00,
2013-01-18 14:23:00,21.1,-0.4,30.31,NNW,343,5.5,14.9,38,0.00,n/a,n/a,-99.99,Henriksen +1-Wire,2013-01-18 19:23:00,
2013-01-18 14:28:00,21.1,-0.3,30.31,NNW,339,3.4,14.9,38,0.00,n/a,n/a,-99.99,Henriksen +1-Wire,2013-01-18 19:28:00,
2013-01-18 14:33:00,21.2,-0.1,30.32,NNW,335,5.1,11.8,39,0.00,n/a,n/a,-99.99,Henriksen +1-Wire,2013-01-18 19:33:00,
2013-01-18 14:39:00,21.2,0.0,30.32,NNW,337,4.5,11.1,39,0.00,n/a,n/a,-99.99,Henriksen +1-Wire,2013-01-18 19:39:00,
2013-01-18 14:45:00,20.7,-0.2,30.32,NNW,331,3.0,10.0,39,0.00,n/a,n/a,-99.99,Henriksen +1-Wire,2013-01-18 19:45:00,
2013-01-18 14:50:00,20.5,-0.5,30.32,NNW,333,1.1,7.1,39,0.00,n/a,n/a,-99.99,Henriksen +1-Wire,2013-01-18 19:50:00,
2013-01-18 14:56:00,20.4,-0.9,30.33,North,349,3.8,11.8,38,0.00,n/a,n/a,-99.99,Henriksen +1-Wire,2013-01-18 19:56:00,
2013-01-18 15:02:00,20.3,-1.1,30.33,NNW,336,2.4,11.8,38,0.00,n/a,n/a,-99.99,Henriksen +1-Wire,2013-01-18 20:02:00,
2013-01-18 15:07:00,20.3,-0.9,30.33,North,349,1.3,8.2,39,0.00,n/a,n/a,-99.99,Henriksen +1-Wire,2013-01-18 20:07:00,
2013-01-18 15:12:00,20.4,-0.8,30.33,NW,325,3.6,10.0,39,0.00,n/a,n/a,-99.99,Henriksen +1-Wire,2013-01-18 20:12:00,
2013-01-18 15:17:00,20.4,-0.7,30.34,NW,319,2.4,10.0,39,0.00,n/a,n/a,-99.99,Henriksen +1-Wire,2013-01-18 20:17:00,
2013-01-18 15:22:00,20.3,-1.0,30.34,NW,324,2.8,9.5,38,0.00,n/a,n/a,-99.99,Henriksen +1-Wire,2013-01-18 20:22:00,
2013-01-18 15:27:00,20.3,-1.0,30.34,NW,313,3.6,9.5,38,0.00,n/a,n/a,-99.99,Henriksen +1-Wire,2013-01-18 20:27:00,
2013-01-18 15:32:00,20.3,-0.5,30.33,NW,315,4.2,10.3,39,0.00,n/a,n/a,-99.99,Henriksen +1-Wire,2013-01-18 20:32:00,
2013-01-18 15:37:00,20.3,-0.1,30.33,NW,321,2.9,10.3,40,0.00,n/a,n/a,-99.99,Henriksen +1-Wire,2013-01-18 20:37:00,
2013-01-18 15:42:00,20.2,-5.0,30.33,North,4,1.4,7.9,32,0.00,n/a,n/a,-99.99,Henriksen +1-Wire,2013-01-18 20:42:00,
2013-01-18 15:47:00,20.3,-12.0,30.33,NNW,339,1.4,7.1,23,0.00,n/a,n/a,-99.99,Henriksen +1-Wire,2013-01-18 20:47:00,
2013-01-18 15:52:00,20.3,-11.0,30.33,NNW,336,1.2,7.8,24,0.00,n/a,n/a,-99.99,Henriksen +1-Wire,2013-01-18 20:52:00,
2013-01-18 15:57:00,20.3,-6.2,30.33,NNW,347,2.9,8.7,30,0.00,n/a,n/a,-99.99,Henriksen +1-Wire,2013-01-18 20:57:00,
2013-01-18 16:02:00,20.7,-3.5,30.33,NNW,327,3.4,8.7,34,0.00,n/a,n/a,-99.99,Henriksen +1-Wire,2013-01-18 21:02:00,
2013-01-18 16:07:00,21.0,-2.0,30.32,NNW,342,2.2,7.1,36,0.00,n/a,n/a,-99.99,Henriksen +1-Wire,2013-01-18 21:07:00,
2013-01-18 16:12:00,21.1,-0.9,30.32,NNW,340,2.4,7.1,37,0.00,n/a,n/a,-99.99,Henriksen +1-Wire,2013-01-18 21:12:00,
2013-01-18 16:17:00,21.2,0.0,30.32,North,355,2.5,5.5,39,0.00,n/a,n/a,-99.99,Henriksen +1-Wire,2013-01-18 21:17:00,
2013-01-18 16:22:00,21.2,0.9,30.33,NNW,327,0.4,6.9,40,0.00,n/a,n/a,-99.99,Henriksen +1-Wire,2013-01-18 21:22:00,
2013-01-18 16:27:00,21.2,1.5,30.33,NW,320,5.1,9.4,42,0.00,n/a,n/a,-99.99,Henriksen +1-Wire,2013-01-18 21:27:00,
2013-01-18 16:32:00,21.2,1.8,30.33,NW,310,3.3,9.4,42,0.00,n/a,n/a,-99.99,Henriksen +1-Wire,2013-01-18 21:32:00,
2013-01-18 16:37:00,21.2,1.8,30.33,NW,319,3.3,8.7,42,0.00,n/a,n/a,-99.99,Henriksen +1-Wire,2013-01-18 21:37:00,
2013-01-18 16:42:00,21.3,1.8,30.33,NW,324,3.6,7.1,42,0.00,n/a,n/a,-99.99,Henriksen +1-Wire,2013-01-18 21:42:00,
2013-01-18 16:47:00,21.3,2.0,30.33,NW,316,1.7,8.6,42,0.00,n/a,n/a,-99.99,Henriksen +1-Wire,2013-01-18 21:47:00,
2013-01-18 16:53:00,21.3,2.1,30.33,NW,320,1.8,8.6,43,0.00,n/a,n/a,-99.99,Henriksen +1-Wire,2013-01-18 21:53:00,
2013-01-18 16:59:00,21.3,2.3,30.34,NW,317,3.6,10.3,43,0.00,n/a,n/a,-99.99,Henriksen +1-Wire,2013-01-18 21:59:00,
2013-01-18 17:04:00,21.3,2.3,30.34,WNW,296,0.4,10.3,43,0.00,n/a,n/a,-99.99,Henriksen +1-Wire,2013-01-18 22:04:00,
2013-01-18 17:09:00,21.3,2.2,30.35,WNW,295,2.0,9.7,43,0.00,n/a,n/a,-99.99,Henriksen +1-Wire,2013-01-18 22:09:00,
2013-01-18 17:14:00,21.3,2.0,30.35,NW,312,2.9,9.7,42,0.00,n/a,n/a,-99.99,Henriksen +1-Wire,2013-01-18 22:14:00,
2013-01-18 17:19:00,21.2,1.8,30.35,NW,311,0.7,8.8,42,0.00,n/a,n/a,-99.99,Henriksen +1-Wire,2013-01-18 22:19:00,
2013-01-18 17:24:00,21.1,1.7,30.35,WNW,303,2.5,5.7,42,0.00,n/a,n/a,-99.99,Henriksen +1-Wire,2013-01-18 22:24:00,
2013-01-18 17:29:00,21.0,1.7,30.35,NW,315,1.0,6.7,42,0.00,n/a,n/a,-99.99,Henriksen +1-Wire,2013-01-18 22:29:00,
2013-01-18 17:34:00,20.3,1.1,30.36,WNW,296,0.0,6.7,42,0.00,n/a,n/a,-99.99,Henriksen +1-Wire,2013-01-18 22:34:00,
2013-01-18 17:39:00,20.2,1.4,30.36,NW,310,0.0,4.2,43,0.00,n/a,n/a,-99.99,Henriksen +1-Wire,2013-01-18 22:39:00,
2013-01-18 17:44:00,19.7,1.2,30.37,NNW,330,0.0,0.0,44,0.00,n/a,n/a,-99.99,Henriksen +1-Wire,2013-01-18 22:44:00,
2013-01-18 17:49:00,19.4,1.2,30.37,NW,320,0.0,0.0,44,0.00,n/a,n/a,-99.99,Henriksen +1-Wire,2013-01-18 22:49:00,
2013-01-18 17:54:00,19.1,1.2,30.37,NW,305,0.0,0.8,45,0.00,n/a,n/a,-99.99,Henriksen +1-Wire,2013-01-18 22:54:00,
2013-01-18 17:59:00,18.8,1.2,30.37,WNW,299,0.0,0.8,45,0.00,n/a,n/a,-99.99,Henriksen +1-Wire,2013-01-18 22:59:00,
2013-01-18 18:04:00,18.8,1.4,30.36,WNW,284,0.0,0.0,46,0.00,n/a,n/a,-99.99,Henriksen +1-Wire,2013-01-18 23:04:00,
2013-01-18 18:10:00,18.7,1.7,30.37,WNW,282,0.0,0.0,47,0.00,n/a,n/a,-99.99,Henriksen +1-Wire,2013-01-18 23:10:00,
2013-01-18 18:16:00,19.1,2.4,30.37,NW,307,0.0,0.0,47,0.00,n/a,n/a,-99.99,Henriksen +1-Wire,2013-01-18 23:16:00,
2013-01-18 18:21:00,19.2,2.9,30.37,West,271,0.0,0.0,48,0.00,n/a,n/a,-99.99,Henriksen +1-Wire,2013-01-18 23:21:00,
2013-01-18 18:26:00,19.3,3.4,30.37,WNW,287,0.0,0.0,49,0.00,n/a,n/a,-99.99,Henriksen +1-Wire,2013-01-18 23:26:00,
2013-01-18 18:31:00,19.3,3.7,30.37,West,274,0.0,0.0,50,0.00,n/a,n/a,-99.99,Henriksen +1-Wire,2013-01-18 23:31:00,
2013-01-18 18:36:00,19.2,3.8,30.38,WNW,299,0.0,0.0,50,0.00,n/a,n/a,-99.99,Henriksen +1-Wire,2013-01-18 23:36:00,
2013-01-18 18:41:00,19.1,4.1,30.38,West,268,0.0,0.0,51,0.00,n/a,n/a,-99.99,Henriksen +1-Wire,2013-01-18 23:41:00,
2013-01-18 18:46:00,19.1,4.6,30.38,West,265,0.0,0.0,52,0.00,n/a,n/a,-99.99,Henriksen +1-Wire,2013-01-18 23:46:00,
2013-01-18 18:51:00,18.7,4.5,30.38,WSW,251,0.0,0.0,53,0.00,n/a,n/a,-99.99,Henriksen +1-Wire,2013-01-18 23:51:00,
2013-01-18 18:56:00,18.3,4.3,30.38,WSW,253,0.0,0.0,54,0.00,n/a,n/a,-99.99,Henriksen +1-Wire,2013-01-18 23:56:00,
2013-01-18 19:01:00,17.7,3.7,30.38,WSW,241,0.0,0.0,54,0.00,n/a,n/a,-99.99,Henriksen +1-Wire,2013-01-19 00:01:00,
2013-01-18 19:07:00,17.3,3.2,30.38,SW,231,0.0,0.0,53,0.00,n/a,n/a,-99.99,Henriksen +1-Wire,2013-01-19 00:07:00,
2013-01-18 19:12:00,17.0,3.0,30.38,SW,236,0.0,0.0,53,0.00,n/a,n/a,-99.99,Henriksen +1-Wire,2013-01-19 00:12:00,
2013-01-18 19:17:00,16.9,2.8,30.38,West,267,0.0,0.0,53,0.00,n/a,n/a,-99.99,Henriksen +1-Wire,2013-01-19 00:17:00,
2013-01-18 19:22:00,16.8,2.8,30.38,SW,225,0.0,0.0,53,0.00,n/a,n/a,-99.99,Henriksen +1-Wire,2013-01-19 00:22:00,
2013-01-18 19:27:00,17.7,3.7,30.38,SW,234,0.0,1.1,53,0.00,n/a,n/a,-99.99,Henriksen +1-Wire,2013-01-19 00:27:00,
2013-01-18 19:32:00,18.4,4.4,30.38,West,277,0.0,1.1,54,0.00,n/a,n/a,-99.99,Henriksen +1-Wire,2013-01-19 00:32:00,
2013-01-18 19:37:00,18.2,4.1,30.38,West,268,0.0,0.0,53,0.00,n/a,n/a,-99.99,Henriksen +1-Wire,2013-01-19 00:37:00,
2013-01-18 19:42:00,17.8,3.6,30.38,WSW,241,0.0,0.0,53,0.00,n/a,n/a,-99.99,Henriksen +1-Wire,2013-01-19 00:42:00,
2013-01-18 19:47:00,17.8,3.5,30.38,West,261,0.0,0.0,53,0.00,n/a,n/a,-99.99,Henriksen +1-Wire,2013-01-19 00:47:00,
2013-01-18 19:53:00,17.3,3.1,30.38,WSW,248,0.0,0.0,53,0.00,n/a,n/a,-99.99,Henriksen +1-Wire,2013-01-19 00:53:00,
2013-01-18 19:58:00,17.0,2.9,30.38,WSW,248,0.0,0.0,53,0.00,n/a,n/a,-99.99,Henriksen +1-Wire,2013-01-19 00:58:00,
2013-01-18 20:03:00,16.8,3.0,30.38,WSW,241,0.0,0.0,54,0.00,n/a,n/a,-99.99,Henriksen +1-Wire,2013-01-19 01:03:00,
2013-01-18 20:08:00,16.7,3.2,30.39,West,266,0.0,0.1,55,0.00,n/a,n/a,-99.99,Henriksen +1-Wire,2013-01-19 01:08:00,
2013-01-18 20:13:00,16.6,3.2,30.39,West,269,0.0,0.4,55,0.00,n/a,n/a,-99.99,Henriksen +1-Wire,2013-01-19 01:13:00,
2013-01-18 20:18:00,16.6,3.2,30.39,West,268,0.0,0.4,55,0.00,n/a,n/a,-99.99,Henriksen +1-Wire,2013-01-19 01:18:00,
2013-01-18 20:23:00,16.5,3.2,30.39,WSW,258,0.1,3.1,55,0.00,n/a,n/a,-99.99,Henriksen +1-Wire,2013-01-19 01:23:00,
2013-01-18 20:28:00,16.5,3.4,30.39,West,265,0.0,3.1,55,0.00,n/a,n/a,-99.99,Henriksen +1-Wire,2013-01-19 01:28:00,
2013-01-18 20:33:00,16.6,3.6,30.39,West,265,0.0,0.0,56,0.00,n/a,n/a,-99.99,Henriksen +1-Wire,2013-01-19 01:33:00,
2013-01-18 20:38:00,16.7,4.0,30.39,West,266,0.0,0.8,57,0.00,n/a,n/a,-99.99,Henriksen +1-Wire,2013-01-19 01:38:00,
2013-01-18 20:43:00,17.2,4.7,30.39,West,260,0.0,1.0,57,0.00,n/a,n/a,-99.99,Henriksen +1-Wire,2013-01-19 01:43:00,
2013-01-18 20:48:00,17.8,5.6,30.39,West,259,0.0,1.0,58,0.00,n/a,n/a,-99.99,Henriksen +1-Wire,2013-01-19 01:48:00,
2013-01-18 20:54:00,17.9,5.6,30.39,West,261,0.0,1.0,58,0.00,n/a,n/a,-99.99,Henriksen +1-Wire,2013-01-19 01:54:00,
2013-01-18 20:59:00,17.5,5.1,30.39,West,263,0.0,0.2,58,0.00,n/a,n/a,-99.99,Henriksen +1-Wire,2013-01-19 01:59:00,
2013-01-18 21:04:00,17.3,4.8,30.39,WSW,243,0.0,0.8,57,0.00,n/a,n/a,-99.99,Henriksen +1-Wire,2013-01-19 02:04:00,
2013-01-18 21:10:00,17.5,5.1,30.38,WSW,251,0.0,0.8,58,0.00,n/a,n/a,-99.99,Henriksen +1-Wire,2013-01-19 02:10:00,
2013-01-18 21:16:00,17.2,5.1,30.38,West,274,0.0,0.8,58,0.00,n/a,n/a,-99.99,Henriksen +1-Wire,2013-01-19 02:16:00,
2013-01-18 21:21:00,17.3,5.3,30.38,West,261,0.0,0.8,59,0.00,n/a,n/a,-99.99,Henriksen +1-Wire,2013-01-19 02:21:00,
2013-01-18 21:26:00,17.9,6.1,30.38,WSW,257,0.0,0.4,59,0.00,n/a,n/a,-99.99,Henriksen +1-Wire,2013-01-19 02:26:00,
2013-01-18 21:31:00,18.5,6.8,30.39,WSW,245,0.0,0.4,59,0.00,n/a,n/a,-99.99,Henriksen +1-Wire,2013-01-19 02:31:00,
2013-01-18 21:36:00,18.8,7.2,30.39,WSW,256,0.1,3.2,60,0.00,n/a,n/a,-99.99,Henriksen +1-Wire,2013-01-19 02:36:00,
2013-01-18 21:41:00,18.9,7.4,30.38,West,261,0.0,3.2,60,0.00,n/a,n/a,-99.99,Henriksen +1-Wire,2013-01-19 02:41:00,
2013-01-18 21:46:00,18.9,7.2,30.38,West,264,0.0,0.4,59,0.00,n/a,n/a,-99.99,Henriksen +1-Wire,2013-01-19 02:46:00,
2013-01-18 21:51:00,19.0,7.2,30.38,West,263,0.0,0.4,59,0.00,n/a,n/a,-99.99,Henriksen +1-Wire,2013-01-19 02:51:00,
2013-01-18 21:56:00,18.7,7.0,30.38,West,266,0.1,3.2,60,0.00,n/a,n/a,-99.99,Henriksen +1-Wire,2013-01-19 02:56:00,
2013-01-18 22:01:00,18.7,7.1,30.38,SW,236,0.0,3.2,60,0.00,n/a,n/a,-99.99,Henriksen +1-Wire,2013-01-19 03:01:00,
2013-01-18 22:06:00,18.3,6.8,30.38,WSW,258,0.0,0.8,60,0.00,n/a,n/a,-99.99,Henriksen +1-Wire,2013-01-19 03:06:00,
2013-01-18 22:11:00,18.1,6.7,30.38,WSW,237,0.0,0.8,60,0.00,n/a,n/a,-99.99,Henriksen +1-Wire,2013-01-19 03:11:00,
2013-01-18 22:17:00,17.6,6.2,30.38,WSW,252,0.0,0.8,60,0.00,n/a,n/a,-99.99,Henriksen +1-Wire,2013-01-19 03:17:00,
2013-01-18 22:22:00,17.4,5.9,30.37,West,268,0.0,1.3,60,0.00,n/a,n/a,-99.99,Henriksen +1-Wire,2013-01-19 03:22:00,
2013-01-18 22:27:00,17.8,6.4,30.37,West,262,0.0,1.3,60,0.00,n/a,n/a,-99.99,Henriksen +1-Wire,2013-01-19 03:27:00,
2013-01-18 22:32:00,18.2,7.0,30.37,West,264,0.4,7.2,61,0.00,n/a,n/a,-99.99,Henriksen +1-Wire,2013-01-19 03:32:00,
2013-01-18 22:37:00,18.7,7.6,30.37,WSW,258,0.0,7.2,61,0.00,n/a,n/a,-99.99,Henriksen +1-Wire,2013-01-19 03:37:00,